createdAt,value
2018-05-26T00:00:19.676Z,17.60
2018-05-26T00:02:46.659Z,17.60
2018-05-26T00:05:13.691Z,17.70
2018-05-26T00:07:40.691Z,17.60
2018-05-26T00:12:34.798Z,17.60
2018-05-26T00:15:01.776Z,17.50
2018-05-26T00:17:28.761Z,17.50
2018-05-26T00:19:55.781Z,17.50
2018-05-26T00:22:22.768Z,17.60
2018-05-26T00:24:49.744Z,17.50
2018-05-26T00:27:17.590Z,17.50
2018-05-26T00:29:47.429Z,17.40
2018-05-26T00:32:11.556Z,17.10
2018-05-26T00:39:47.167Z,16.80
2018-05-26T00:42:14.165Z,17.00
2018-05-26T00:44:41.135Z,17.10
2018-05-26T00:47:08.147Z,17.10
2018-05-26T00:49:35.128Z,17.20
2018-05-26T00:52:02.107Z,17.30
2018-05-26T00:54:29.142Z,17.20
2018-05-26T00:56:56.125Z,17.20
2018-05-26T00:59:23.109Z,17.20
2018-05-26T01:04:17.965Z,17.10
2018-05-26T01:06:45.891Z,17.00
2018-05-26T01:09:12.915Z,17.00
2018-05-26T01:11:40.841Z,17.00
2018-05-26T01:14:07.830Z,16.90
2018-05-26T01:19:02.733Z,16.80
2018-05-26T01:21:29.720Z,16.80
2018-05-26T01:23:56.749Z,16.90
2018-05-26T01:26:23.727Z,16.90
2018-05-26T01:28:50.716Z,16.90
2018-05-26T01:31:17.754Z,16.90
2018-05-26T01:33:45.557Z,16.80
2018-05-26T01:36:12.543Z,16.70
2018-05-26T01:38:40.335Z,16.70
2018-05-26T01:41:08.173Z,16.70
2018-05-26T01:43:35.971Z,16.60
2018-05-26T01:46:02.987Z,16.60
2018-05-26T01:48:29.982Z,16.50
2018-05-26T01:50:57.025Z,16.50
2018-05-26T01:53:23.999Z,16.50
2018-05-26T01:55:50.988Z,16.60
2018-05-26T02:00:58.486Z,16.50
2018-05-26T02:03:25.472Z,16.50
2018-05-26T02:05:52.451Z,16.50
2018-05-26T02:08:19.485Z,16.40
2018-05-26T02:10:46.468Z,16.20
2018-05-26T02:13:13.452Z,16.10
2018-05-26T02:15:40.480Z,16.20
2018-05-26T02:18:07.471Z,16.10
2018-05-26T02:20:34.462Z,16.10
2018-05-26T02:23:01.469Z,16.10
2018-05-26T02:25:28.454Z,16.10
2018-05-26T02:27:55.440Z,16.00
2018-05-26T02:30:22.474Z,16.00
2018-05-26T02:32:49.460Z,16.00
2018-05-26T02:35:16.444Z,15.90
2018-05-26T02:37:43.467Z,15.90
2018-05-26T02:42:38.396Z,15.80
2018-05-26T02:45:05.421Z,15.80
2018-05-26T02:47:32.403Z,15.80
2018-05-26T02:49:59.396Z,15.80
2018-05-26T02:52:26.432Z,15.70
2018-05-26T02:54:53.417Z,15.70
2018-05-26T02:57:20.443Z,15.60
2018-05-26T02:59:48.259Z,15.60
2018-05-26T03:02:15.249Z,15.60
2018-05-26T03:04:42.239Z,15.60
2018-05-26T03:07:09.269Z,15.60
2018-05-26T03:09:36.246Z,15.60
2018-05-26T03:12:03.234Z,15.40
2018-05-26T03:14:30.248Z,15.40
2018-05-26T03:16:57.228Z,15.30
2018-05-26T03:22:02.725Z,15.30
2018-05-26T03:24:29.723Z,15.30
2018-05-26T03:26:56.733Z,15.30
2018-05-26T03:29:23.762Z,15.30
2018-05-26T03:31:50.741Z,15.20
2018-05-26T03:34:17.744Z,15.30
2018-05-26T03:36:44.755Z,15.30
2018-05-26T03:39:11.733Z,15.30
2018-05-26T03:41:38.772Z,15.10
2018-05-26T03:44:05.790Z,15.00
2018-05-26T03:46:32.767Z,14.90
2018-05-26T03:48:59.760Z,14.90
2018-05-26T03:51:26.783Z,14.90
2018-05-26T03:56:43.804Z,14.80
2018-05-26T03:59:16.722Z,14.90
2018-05-26T04:01:43.751Z,15.10
2018-05-26T04:04:10.742Z,15.20
2018-05-26T04:06:37.744Z,15.20
2018-05-26T04:09:04.764Z,15.20
2018-05-26T04:11:31.758Z,15.30
2018-05-26T04:13:58.746Z,15.30
2018-05-26T04:16:25.768Z,15.20
2018-05-26T04:18:52.758Z,15.30
2018-05-26T04:21:19.744Z,15.50
2018-05-26T04:23:46.764Z,15.60
2018-05-26T04:26:13.761Z,15.60
2018-05-26T04:28:44.225Z,15.70
2018-05-26T04:31:11.280Z,15.80
2018-05-26T04:33:38.267Z,15.90
2018-05-26T04:36:05.259Z,15.60
2018-05-26T04:38:32.349Z,15.70
2018-05-26T04:40:59.327Z,15.90
2018-05-26T04:43:26.307Z,16.00
2018-05-26T04:45:53.319Z,15.80
2018-05-26T04:48:21.128Z,15.80
2018-05-26T04:50:48.199Z,15.90
2018-05-26T04:58:23.962Z,16.40
2018-05-26T05:00:50.944Z,16.70
2018-05-26T05:03:17.925Z,16.90
2018-05-26T05:05:45.029Z,17.10
2018-05-26T05:08:11.948Z,16.60
2018-05-26T05:10:38.943Z,16.50
2018-05-26T05:13:05.970Z,16.40
2018-05-26T05:15:32.940Z,16.60
2018-05-26T05:17:59.922Z,16.30
2018-05-26T05:20:26.963Z,16.30
2018-05-26T05:22:53.942Z,16.20
2018-05-26T05:25:20.932Z,15.90
2018-05-26T05:27:47.960Z,15.70
2018-05-26T05:30:14.936Z,15.70
2018-05-26T05:32:41.994Z,15.90
2018-05-26T05:35:08.951Z,16.20
2018-05-26T05:37:36.707Z,16.20
2018-05-26T05:40:03.660Z,16.30
2018-05-26T05:42:30.719Z,16.80
2018-05-26T05:44:57.705Z,16.80
2018-05-26T05:47:24.689Z,17.50
2018-05-26T05:49:51.699Z,17.50
2018-05-26T05:52:18.684Z,17.90
2018-05-26T05:54:45.667Z,17.90
2018-05-26T05:57:12.717Z,17.50
2018-05-26T05:59:39.697Z,17.60
2018-05-26T06:02:06.680Z,17.60
2018-05-26T06:04:33.715Z,18.20
2018-05-26T06:09:27.790Z,17.80
2018-05-26T06:11:55.747Z,17.80
2018-05-26T06:14:25.942Z,17.90
2018-05-26T06:19:33.352Z,18.00
2018-05-26T06:22:00.392Z,18.80
2018-05-26T06:24:27.371Z,19.20
2018-05-26T06:26:55.345Z,19.00
2018-05-26T06:29:22.322Z,18.70
2018-05-26T06:31:49.373Z,19.00
2018-05-26T06:34:16.330Z,18.70
2018-05-26T06:36:43.323Z,19.70
2018-05-26T06:39:10.303Z,19.20
2018-05-26T06:41:37.321Z,19.00
2018-05-26T06:44:04.306Z,19.00
2018-05-26T06:46:32.291Z,19.10
2018-05-26T06:48:59.380Z,18.90
2018-05-26T06:51:26.385Z,19.20
2018-05-26T06:53:53.380Z,19.80
2018-05-26T06:56:20.448Z,19.60
2018-05-26T06:58:47.572Z,19.90
2018-05-26T07:01:14.568Z,20.40
2018-05-26T07:03:41.585Z,20.70
2018-05-26T07:06:08.837Z,21.10
2018-05-26T07:08:35.818Z,21.30
2018-05-26T07:11:02.848Z,21.40
2018-05-26T07:13:30.670Z,21.00
2018-05-26T07:15:57.657Z,21.10
2018-05-26T07:18:25.567Z,20.70
2018-05-26T07:20:52.593Z,21.50
2018-05-26T07:23:19.592Z,21.80
2018-05-26T07:25:46.605Z,21.70
2018-05-26T07:28:13.586Z,21.20
2018-05-26T07:30:40.572Z,21.80
2018-05-26T07:33:07.597Z,22.00
2018-05-26T07:38:17.173Z,22.30
2018-05-26T07:40:45.116Z,22.70
2018-05-26T07:43:12.099Z,23.10
2018-05-26T07:45:39.114Z,22.80
2018-05-26T07:48:06.102Z,23.30
2018-05-26T07:50:34.445Z,22.90
2018-05-26T07:53:01.466Z,22.70
2018-05-26T07:55:29.278Z,22.90
2018-05-26T07:57:56.318Z,22.40
2018-05-26T08:00:26.185Z,22.90
2018-05-26T08:02:53.170Z,23.10
2018-05-26T08:05:20.183Z,22.30
2018-05-26T08:07:47.230Z,23.10
2018-05-26T08:10:14.231Z,23.60
2018-05-26T08:15:08.323Z,23.40
2018-05-26T08:17:35.319Z,23.40
2018-05-26T08:20:02.304Z,23.90
2018-05-26T08:22:30.286Z,23.80
2018-05-26T08:24:57.269Z,24.10
2018-05-26T08:27:26.852Z,24.10
2018-05-26T08:29:53.889Z,24.20
2018-05-26T08:32:21.729Z,24.70
2018-05-26T08:34:49.560Z,24.70
2018-05-26T08:37:16.596Z,24.60
2018-05-26T08:39:43.608Z,24.20
2018-05-26T08:42:15.055Z,24.70
2018-05-26T08:44:42.084Z,24.10
2018-05-26T08:47:09.068Z,24.90
2018-05-26T08:49:36.070Z,25.30
2018-05-26T08:52:03.111Z,25.00
2018-05-26T08:56:58.792Z,24.60
2018-05-26T08:59:25.818Z,24.90
2018-05-26T09:01:52.893Z,25.30
2018-05-26T09:07:01.236Z,25.20
2018-05-26T09:09:28.220Z,25.40
2018-05-26T09:11:55.217Z,25.60
2018-05-26T09:14:22.246Z,25.50
2018-05-26T09:16:49.261Z,25.00
2018-05-26T09:19:17.087Z,25.00
2018-05-26T09:21:44.114Z,25.40
2018-05-26T09:24:11.107Z,25.30
2018-05-26T09:29:05.220Z,25.00
2018-05-26T09:31:32.230Z,25.10
2018-05-26T09:33:59.975Z,25.60
2018-05-26T09:36:27.000Z,25.50
2018-05-26T09:38:53.988Z,25.90
2018-05-26T09:43:48.125Z,27.00
2018-05-26T09:46:15.078Z,26.20
2018-05-26T09:48:42.064Z,26.50
2018-05-26T09:51:09.930Z,27.00
2018-05-26T09:53:36.922Z,27.50
2018-05-26T09:56:03.949Z,27.00
2018-05-26T09:58:30.921Z,26.60
2018-05-26T10:00:57.909Z,27.10
2018-05-26T10:03:26.039Z,27.10
2018-05-26T10:05:53.064Z,26.80
2018-05-26T10:08:20.044Z,27.10
2018-05-26T10:10:47.030Z,27.00
2018-05-26T10:13:14.058Z,26.90
2018-05-26T10:15:41.043Z,27.10
2018-05-26T10:18:09.704Z,27.40
2018-05-26T10:20:37.561Z,27.60
2018-05-26T10:23:04.549Z,27.40
2018-05-26T10:28:12.031Z,28.20
2018-05-26T10:30:39.045Z,27.70
2018-05-26T10:33:06.030Z,28.20
2018-05-26T10:35:34.040Z,28.10
2018-05-26T10:38:01.037Z,28.60
2018-05-26T10:40:28.027Z,28.90
2018-05-26T10:42:55.041Z,29.00
2018-05-26T10:48:07.892Z,28.20
2018-05-26T10:50:35.826Z,28.80
2018-05-26T10:53:03.876Z,28.80
2018-05-26T10:55:30.888Z,29.20
2018-05-26T10:57:57.890Z,29.30
2018-05-26T11:00:24.869Z,28.90
2018-05-26T11:02:52.966Z,29.20
2018-05-26T11:05:19.964Z,29.50
2018-05-26T11:07:46.954Z,29.10
2018-05-26T11:10:14.002Z,29.00
2018-05-26T11:12:40.989Z,29.30
2018-05-26T11:15:07.983Z,30.00
2018-05-26T11:17:35.004Z,30.60
2018-05-26T11:20:01.990Z,29.90
2018-05-26T11:22:28.985Z,29.90
2018-05-26T11:24:56.048Z,29.70
2018-05-26T11:27:23.025Z,30.20
2018-05-26T11:29:50.012Z,30.00
2018-05-26T11:32:17.805Z,30.10
2018-05-26T11:34:44.791Z,30.00
2018-05-26T11:37:12.736Z,30.10
2018-05-26T11:39:39.655Z,30.30
2018-05-26T11:42:06.643Z,29.70
2018-05-26T11:44:33.626Z,30.10
2018-05-26T11:47:00.653Z,30.20
2018-05-26T11:49:27.646Z,30.40
2018-05-26T11:51:54.631Z,29.70
2018-05-26T11:54:21.659Z,29.50
2018-05-26T11:56:49.610Z,29.90
2018-05-26T11:59:16.604Z,30.00
2018-05-26T12:01:43.647Z,29.90
2018-05-26T12:09:17.144Z,29.90
2018-05-26T12:11:44.145Z,30.10
2018-05-26T12:14:12.119Z,29.60
2018-05-26T12:16:40.116Z,29.40
2018-05-26T12:19:07.089Z,29.50
2018-05-26T12:21:34.093Z,30.30
2018-05-26T12:24:01.127Z,29.80
2018-05-26T12:26:28.108Z,29.60
2018-05-26T12:28:55.093Z,29.70
2018-05-26T12:31:22.127Z,29.60
2018-05-26T12:33:49.122Z,30.10
2018-05-26T12:36:16.102Z,30.10
2018-05-26T12:38:43.848Z,30.30
2018-05-26T12:41:10.861Z,30.30
2018-05-26T12:43:38.701Z,30.70
2018-05-26T12:46:05.727Z,31.00
2018-05-26T12:48:33.670Z,30.90
2018-05-26T12:51:00.663Z,30.70
2018-05-26T12:53:28.459Z,30.00
2018-05-26T12:55:55.454Z,30.40
2018-05-26T12:58:23.407Z,30.70
2018-05-26T13:00:51.404Z,30.70
2018-05-26T13:03:19.473Z,31.00
2018-05-26T13:05:47.203Z,30.20
2018-05-26T13:08:14.235Z,30.80
2018-05-26T13:10:41.224Z,31.00
2018-05-26T13:13:08.347Z,31.20
2018-05-26T13:15:35.385Z,30.90
2018-05-26T13:18:02.399Z,30.50
2018-05-26T13:20:29.411Z,30.30
2018-05-26T13:22:57.458Z,31.10
2018-05-26T13:25:24.546Z,31.30
2018-05-26T13:30:30.033Z,30.50
2018-05-26T13:32:57.014Z,31.00
2018-05-26T13:35:24.009Z,30.90
2018-05-26T13:37:52.905Z,30.40
2018-05-26T13:40:18.045Z,30.10
2018-05-26T13:42:45.055Z,30.00
2018-05-26T13:45:12.082Z,30.10
2018-05-26T13:47:39.045Z,30.00
2018-05-26T13:50:06.028Z,30.20
2018-05-26T13:52:36.610Z,30.10
2018-05-26T13:55:03.585Z,29.70
2018-05-26T13:57:30.533Z,29.60
2018-05-26T13:59:57.552Z,29.80
2018-05-26T14:02:24.577Z,29.90
2018-05-26T14:04:51.530Z,29.90
2018-05-26T14:07:18.547Z,30.30
2018-05-26T14:09:45.537Z,30.40
2018-05-26T14:12:13.534Z,30.40
2018-05-26T14:14:40.561Z,30.10
2018-05-26T14:17:07.551Z,30.10
2018-05-26T14:19:34.546Z,30.10
2018-05-26T14:22:01.584Z,30.20
2018-05-26T14:24:31.326Z,30.60
2018-05-26T14:26:58.319Z,30.50
2018-05-26T14:29:26.190Z,29.80
2018-05-26T14:34:31.679Z,30.50
2018-05-26T14:39:25.736Z,30.00
2018-05-26T14:41:52.763Z,30.00
2018-05-26T14:44:19.752Z,30.20
2018-05-26T14:46:47.571Z,30.00
2018-05-26T14:49:15.346Z,29.80
2018-05-26T14:51:42.337Z,29.70
2018-05-26T14:54:09.332Z,29.60
2018-05-26T14:56:36.360Z,29.40
2018-05-26T14:59:03.343Z,29.40
2018-05-26T15:01:30.320Z,29.10
2018-05-26T15:03:57.337Z,28.80
2018-05-26T15:06:24.325Z,28.60
2018-05-26T15:08:52.331Z,28.40
2018-05-26T15:11:19.340Z,28.40
2018-05-26T15:13:46.327Z,28.30
2018-05-26T15:16:13.312Z,28.60
2018-05-26T15:18:40.335Z,28.60
2018-05-26T15:21:07.331Z,28.50
2018-05-26T15:23:34.310Z,28.40
2018-05-26T15:26:01.324Z,28.30
2018-05-26T15:28:28.309Z,28.30
2018-05-26T15:30:56.149Z,28.20
2018-05-26T15:33:23.161Z,28.20
2018-05-26T15:35:50.145Z,28.40
2018-05-26T15:40:57.625Z,27.70
2018-05-26T15:43:25.758Z,27.70
2018-05-26T15:45:52.737Z,27.90
2018-05-26T15:48:19.767Z,28.00
2018-05-26T15:50:47.545Z,27.70
2018-05-26T15:53:15.466Z,27.70
2018-05-26T15:55:42.472Z,27.80
2018-05-26T15:58:09.457Z,27.70
2018-05-26T16:03:03.561Z,27.20
2018-05-26T16:05:30.540Z,26.90
2018-05-26T16:07:57.538Z,26.90
2018-05-26T16:10:24.621Z,26.90
2018-05-26T16:12:51.610Z,27.00
2018-05-26T16:15:19.533Z,27.00
2018-05-26T16:17:46.638Z,26.80
2018-05-26T16:20:13.554Z,26.70
2018-05-26T16:22:40.552Z,26.60
2018-05-26T16:25:07.625Z,26.60
2018-05-26T16:27:35.459Z,26.70
2018-05-26T16:30:02.435Z,26.50
2018-05-26T16:32:29.490Z,26.50
2018-05-26T16:34:56.468Z,26.50
2018-05-26T16:37:23.464Z,26.50
2018-05-26T16:39:50.480Z,26.60
2018-05-26T16:42:17.470Z,26.50
2018-05-26T16:44:44.454Z,26.30
2018-05-26T16:47:11.502Z,26.40
2018-05-26T16:49:38.646Z,26.20
2018-05-26T16:52:05.482Z,26.10
2018-05-26T16:54:32.503Z,26.20
2018-05-26T16:56:59.491Z,26.10
2018-05-26T17:04:32.064Z,26.00
2018-05-26T17:06:59.083Z,26.10
2018-05-26T17:09:26.124Z,26.00
2018-05-26T17:11:53.893Z,25.80
2018-05-26T17:14:20.906Z,25.90
2018-05-26T17:16:47.908Z,25.90
2018-05-26T17:19:14.894Z,25.80
2018-05-26T17:24:09.014Z,25.60
2018-05-26T17:26:36.007Z,25.80
2018-05-26T17:29:03.032Z,25.70
2018-05-26T17:31:30.883Z,25.50
2018-05-26T17:33:57.873Z,25.50
2018-05-26T17:36:25.768Z,25.40
2018-05-26T17:38:52.945Z,25.50
2018-05-26T17:41:20.765Z,25.50
2018-05-26T17:43:47.776Z,25.50
2018-05-26T17:46:14.776Z,25.50
2018-05-26T17:48:42.576Z,25.30
2018-05-26T17:51:09.657Z,25.30
2018-05-26T17:56:04.460Z,25.30
2018-05-26T17:58:31.479Z,25.10
2018-05-26T18:00:58.460Z,25.10
2018-05-26T18:03:25.462Z,25.10
2018-05-26T18:05:53.516Z,25.20
2018-05-26T18:08:20.512Z,25.10
2018-05-26T18:10:47.504Z,25.20
2018-05-26T18:13:15.391Z,25.20
2018-05-26T18:15:43.207Z,25.10
2018-05-26T18:20:48.737Z,25.10
2018-05-26T18:23:15.723Z,25.10
2018-05-26T18:25:42.716Z,25.10
2018-05-26T18:28:09.741Z,25.00
2018-05-26T18:30:37.454Z,24.80
2018-05-26T18:33:04.436Z,24.90
2018-05-26T18:35:31.452Z,24.80
2018-05-26T18:37:58.443Z,24.80
2018-05-26T18:40:26.389Z,24.80
2018-05-26T18:45:36.355Z,24.70
2018-05-26T18:48:03.396Z,24.60
2018-05-26T18:50:30.386Z,24.70
2018-05-26T18:52:57.377Z,24.70
2018-05-26T18:55:24.400Z,24.80
2018-05-26T19:00:18.467Z,24.50
2018-05-26T19:02:45.488Z,24.40
2018-05-26T19:05:12.474Z,24.40
2018-05-26T19:07:40.416Z,24.40
2018-05-26T19:10:07.455Z,24.30
2018-05-26T19:12:34.442Z,24.10
2018-05-26T19:15:01.436Z,24.10
2018-05-26T19:17:28.470Z,24.10
2018-05-26T19:19:55.464Z,23.60
2018-05-26T19:22:23.277Z,23.80
2018-05-26T19:24:50.301Z,23.70
2018-05-26T19:27:17.292Z,23.60
2018-05-26T19:29:44.272Z,23.60
2018-05-26T19:32:11.307Z,23.40
2018-05-26T19:37:06.213Z,23.00
2018-05-26T19:39:33.241Z,22.70
2018-05-26T19:42:00.227Z,22.70
2018-05-26T19:44:27.220Z,22.50
2018-05-26T19:46:54.265Z,22.40
2018-05-26T19:49:21.262Z,22.20
2018-05-26T19:51:48.248Z,22.20
2018-05-26T19:54:15.269Z,22.00
2018-05-26T19:56:43.117Z,22.30
2018-05-26T19:59:10.129Z,22.40
2018-05-26T20:01:37.973Z,22.30
2018-05-26T20:06:45.483Z,22.10
2018-05-26T20:09:12.475Z,22.10
2018-05-26T20:11:39.478Z,22.20
2018-05-26T20:14:06.520Z,22.30
2018-05-26T20:16:33.511Z,22.20
2018-05-26T20:19:00.509Z,22.30
2018-05-26T20:21:28.371Z,22.20
2018-05-26T20:23:55.363Z,22.10
2018-05-26T20:26:22.350Z,22.20
2018-05-26T20:28:50.230Z,22.10
2018-05-26T20:31:17.258Z,22.00
2018-05-26T20:33:45.143Z,22.00
2018-05-26T20:36:14.172Z,22.20
2018-05-26T20:38:41.167Z,22.20
2018-05-26T20:41:08.162Z,22.20
2018-05-26T20:43:35.230Z,22.10
2018-05-26T20:46:02.164Z,22.10
2018-05-26T20:48:29.968Z,22.20
2018-05-26T20:50:57.016Z,22.20
2018-05-26T20:53:23.993Z,22.30
2018-05-26T20:55:50.989Z,22.30
2018-05-26T20:58:18.008Z,22.10
2018-05-26T21:00:45.000Z,22.20
2018-05-26T21:03:12.012Z,22.00
2018-05-26T21:05:39.052Z,22.10
2018-05-26T21:08:06.996Z,22.00
2018-05-26T21:13:01.103Z,21.90
2018-05-26T21:15:28.102Z,21.80
2018-05-26T21:17:55.089Z,21.80
2018-05-26T21:20:22.129Z,21.80
2018-05-26T21:25:16.198Z,21.60
2018-05-26T21:27:44.162Z,21.60
2018-05-26T21:32:49.611Z,21.40
2018-05-26T21:35:16.582Z,21.40
2018-05-26T21:37:43.578Z,21.30
2018-05-26T21:40:12.658Z,21.20
2018-05-26T21:42:37.640Z,21.30
2018-05-26T21:45:04.621Z,21.40
2018-05-26T21:47:32.470Z,21.10
2018-05-26T21:49:59.462Z,21.20
2018-05-26T21:52:28.138Z,21.30
2018-05-26T21:54:55.123Z,21.30
2018-05-26T21:57:22.120Z,21.10
2018-05-26T21:59:49.115Z,21.10
2018-05-26T22:02:16.133Z,20.90
2018-05-26T22:04:43.117Z,21.00
2018-05-26T22:07:10.105Z,21.10
2018-05-26T22:09:37.118Z,21.10
2018-05-26T22:12:04.109Z,21.00
2018-05-26T22:14:31.095Z,21.10
2018-05-26T22:16:58.987Z,21.00
2018-05-26T22:19:25.976Z,20.80
2018-05-26T22:24:20.093Z,20.70
2018-05-26T22:26:48.022Z,20.60
2018-05-26T22:29:15.011Z,20.70
2018-05-26T22:31:42.961Z,20.60
2018-05-26T22:34:09.951Z,20.60
2018-05-26T22:36:36.934Z,20.60
2018-05-26T22:41:42.277Z,20.70
2018-05-26T22:46:36.366Z,20.90
2018-05-26T22:49:03.711Z,20.90
2018-05-26T22:51:30.737Z,20.90
2018-05-26T22:53:59.746Z,20.60
2018-05-26T22:58:51.815Z,20.70
2018-05-26T23:01:18.796Z,20.60
2018-05-26T23:03:45.780Z,20.70
2018-05-26T23:06:12.839Z,20.60
2018-05-26T23:08:39.835Z,20.60
2018-05-26T23:11:06.819Z,20.60
2018-05-26T23:13:33.834Z,20.40
2018-05-26T23:16:00.818Z,20.30
2018-05-26T23:18:27.793Z,20.40
2018-05-26T23:20:54.820Z,20.30
2018-05-26T23:25:48.888Z,20.30
2018-05-26T23:28:16.202Z,20.30
2018-05-26T23:30:43.184Z,20.20
2018-05-26T23:33:10.168Z,20.10
2018-05-26T23:35:38.032Z,20.20
2018-05-26T23:38:05.036Z,20.30
2018-05-26T23:40:32.017Z,20.30
2018-05-26T23:42:59.039Z,20.10
2018-05-26T23:48:04.532Z,19.90
2018-05-26T23:50:31.529Z,20.00
2018-05-26T23:52:58.896Z,20.00
2018-05-26T23:57:52.895Z,19.90
